Time;durP1;ratioP1;P1;durP2;ratioP2;P2;SDS_P1;SDS_P2;PMS_P1;PMS_P2;Temp;Humidity;BMP_temperature;BMP_pressure;BME280_temperature;BME280_humidity;BME280_pressure;Samples;Min_cycle;Max_cycle;Signal;HPM_P1;HPM_P2
2022/05/15 00:02:18;;;;;;;59.57;3.27;;;;;;;;;;5072088;28;20427;-75
2022/05/15 00:04:45;;;;;;;63.97;5.20;;;;;;;;;;5072218;28;20478;-76
2022/05/15 00:07:14;;;;;;;60.60;4.40;;;;;;;;;;5071024;28;20454;-76
2022/05/15 00:09:41;;;;;;;60.27;3.67;;;;;;;;;;5071812;28;20478;-75
2022/05/15 00:12:09;;;;;;;59.57;3.40;;;;;;;;;;5071870;28;20819;-76
2022/05/15 00:14:36;;;;;;;60.90;3.87;;;;;;;;;;5071806;28;20453;-75
2022/05/15 00:17:04;;;;;;;60.60;4.33;;;;;;;;;;5071549;28;21023;-76
2022/05/15 00:19:31;;;;;;;61.67;3.40;;;;;;;;;;5071230;28;21074;-75
2022/05/15 00:21:58;;;;;;;59.30;3.40;;;;;;;;;;5071909;28;20466;-75
2022/05/15 00:24:28;;;;;;;60.90;3.70;;;;;;;;;;5071610;28;20936;-76
2022/05/15 00:26:55;;;;;;;60.83;3.90;;;;;;;;;;5071520;28;20457;-75
2022/05/15 00:29:22;;;;;;;59.80;3.53;;;;;;;;;;5071263;28;20447;-76
2022/05/15 00:31:49;;;;;;;60.03;3.50;;;;;;;;;;5071817;28;20477;-75
2022/05/15 00:34:17;;;;;;;64.83;3.60;;;;;;;;;;5071647;28;20545;-75
2022/05/15 00:36:44;;;;;;;60.17;4.00;;;;;;;;;;5071443;28;20479;-75
2022/05/15 00:39:11;;;;;;;60.50;3.53;;;;;;;;;;5070903;28;20554;-75
2022/05/15 00:41:40;;;;;;;59.70;3.60;;;;;;;;;;5071745;28;20463;-75
2022/05/15 00:44:08;;;;;;;59.80;3.33;;;;;;;;;;5071511;28;20459;-75
2022/05/15 00:46:37;;;;;;;60.10;3.93;;;;;;;;;;5073624;28;20796;-76
2022/05/15 00:49:06;;;;;;;59.33;3.20;;;;;;;;;;5075153;28;20533;-76
2022/05/15 00:51:36;;;;;;;59.90;3.70;;;;;;;;;;5075398;28;20499;-75
2022/05/15 00:54:07;;;;;;;59.33;3.27;;;;;;;;;;5075287;28;20463;-75
2022/05/15 00:56:37;;;;;;;59.80;3.70;;;;;;;;;;5075368;28;21033;-75
2022/05/15 00:59:09;;;;;;;61.40;4.20;;;;;;;;;;5074812;28;20545;-75
2022/05/15 01:01:36;;;;;;;59.90;3.33;;;;;;;;;;5075692;28;20475;-75
2022/05/15 01:04:03;;;;;;;61.00;3.80;;;;;;;;;;5075869;28;20555;-75
2022/05/15 01:06:31;;;;;;;60.30;3.57;;;;;;;;;;5075204;28;20536;-75
2022/05/15 01:08:58;;;;;;;60.00;3.90;;;;;;;;;;5074455;28;20549;-75
2022/05/15 01:11:26;;;;;;;59.80;3.50;;;;;;;;;;5075247;28;20498;-76
2022/05/15 01:13:54;;;;;;;59.73;3.37;;;;;;;;;;5075150;28;20443;-75
2022/05/15 01:16:24;;;;;;;59.70;3.90;;;;;;;;;;5074790;28;21078;-75
2022/05/15 01:18:55;;;;;;;61.43;4.23;;;;;;;;;;5074411;28;20876;-76
2022/05/15 01:21:25;;;;;;;59.93;3.70;;;;;;;;;;5075137;28;20541;-75
2022/05/15 01:23:52;;;;;;;61.17;3.60;;;;;;;;;;5075023;28;20539;-75
2022/05/15 01:26:20;;;;;;;60.37;4.17;;;;;;;;;;5075077;28;20966;-75
2022/05/15 01:28:47;;;;;;;59.70;3.80;;;;;;;;;;5074129;28;20545;-75
2022/05/15 01:31:15;;;;;;;59.37;3.30;;;;;;;;;;5074718;28;20498;-75
2022/05/15 01:33:42;;;;;;;59.70;3.47;;;;;;;;;;5074700;28;20457;-76
2022/05/15 01:36:09;;;;;;;59.13;2.97;;;;;;;;;;5074762;28;20968;-75
2022/05/15 01:38:38;;;;;;;59.10;3.20;;;;;;;;;;5058251;28;20495;-76
2022/05/15 01:41:07;;;;;;;59.70;3.43;;;;;;;;;;5053395;28;20470;-75
2022/05/15 01:43:34;;;;;;;59.90;3.40;;;;;;;;;;5053722;28;20937;-75
2022/05/15 01:46:01;;;;;;;59.30;3.70;;;;;;;;;;5058868;28;20965;-75
2022/05/15 01:48:31;;;;;;;59.00;3.37;;;;;;;;;;5072658;28;20460;-76
2022/05/15 01:50:58;;;;;;;60.37;3.40;;;;;;;;;;5073473;28;20561;-75
2022/05/15 01:53:25;;;;;;;60.47;4.00;;;;;;;;;;5073075;28;20479;-76
2022/05/15 01:55:54;;;;;;;59.70;3.30;;;;;;;;;;5073240;28;20862;-75
2022/05/15 01:58:21;;;;;;;60.17;4.07;;;;;;;;;;5072149;28;20542;-75
2022/05/15 02:00:49;;;;;;;59.43;3.07;;;;;;;;;;5073207;28;20923;-75
2022/05/15 02:03:16;;;;;;;60.10;3.40;;;;;;;;;;5073007;28;20493;-75
2022/05/15 02:05:43;;;;;;;64.10;3.23;;;;;;;;;;5073015;28;20451;-76
2022/05/15 02:08:10;;;;;;;60.23;3.50;;;;;;;;;;5072432;28;20486;-75
2022/05/15 02:10:38;;;;;;;60.20;3.60;;;;;;;;;;5073238;28;20986;-75
2022/05/15 02:13:06;;;;;;;59.07;3.20;;;;;;;;;;5073024;28;20485;-75
2022/05/15 02:15:34;;;;;;;59.70;3.37;;;;;;;;;;5072813;28;20487;-75
2022/05/15 02:18:01;;;;;;;59.60;3.67;;;;;;;;;;5072092;28;20497;-75
2022/05/15 02:20:29;;;;;;;59.57;3.50;;;;;;;;;;5072622;28;20998;-76
2022/05/15 02:22:56;;;;;;;59.77;4.33;;;;;;;;;;5072842;28;20537;-75
2022/05/15 02:25:23;;;;;;;59.97;4.23;;;;;;;;;;5072975;28;20894;-75
2022/05/15 02:27:50;;;;;;;60.20;4.50;;;;;;;;;;5072437;28;20477;-75
2022/05/15 02:30:20;;;;;;;59.60;3.30;;;;;;;;;;5072635;28;20478;-75
2022/05/15 02:32:48;;;;;;;59.53;3.43;;;;;;;;;;5072443;28;21016;-76
2022/05/15 02:35:15;;;;;;;59.50;3.20;;;;;;;;;;5072520;28;20458;-75
2022/05/15 02:37:44;;;;;;;59.17;3.30;;;;;;;;;;5032539;28;1128681;-75
2022/05/15 02:40:12;;;;;;;59.07;3.10;;;;;;;;;;5073396;28;21044;-76
2022/05/15 02:42:40;;;;;;;59.37;3.13;;;;;;;;;;5073389;28;20477;-75
2022/05/15 02:45:07;;;;;;;59.70;3.50;;;;;;;;;;5073439;28;20447;-75
2022/05/15 02:47:36;;;;;;;60.87;4.93;;;;;;;;;;5072585;28;20450;-75
2022/05/15 02:52:48;;;;;;;59.20;3.17;;;;;;;;;;5073340;28;20468;-75
2022/05/15 02:55:16;;;;;;;59.03;2.87;;;;;;;;;;5073451;28;21014;-75
2022/05/15 02:57:43;;;;;;;59.80;3.77;;;;;;;;;;5072423;28;20489;-75
2022/05/15 03:00:11;;;;;;;59.17;3.00;;;;;;;;;;5072789;28;21017;-75
2022/05/15 03:02:40;;;;;;;63.00;3.80;;;;;;;;;;5073441;28;20463;-75
2022/05/15 03:05:09;;;;;;;59.47;3.50;;;;;;;;;;5073337;28;20450;-75
2022/05/15 03:07:37;;;;;;;59.60;3.17;;;;;;;;;;5072310;28;20446;-76
2022/05/15 03:10:05;;;;;;;59.67;3.40;;;;;;;;;;5071497;28;20467;-75
2022/05/15 03:12:32;;;;;;;62.47;3.40;;;;;;;;;;5072581;28;20454;-75
2022/05/15 03:14:59;;;;;;;61.23;4.50;;;;;;;;;;5073062;28;20554;-75
2022/05/15 03:17:26;;;;;;;59.40;3.30;;;;;;;;;;5071881;28;20573;-75
2022/05/15 03:19:55;;;;;;;60.37;3.97;;;;;;;;;;5072982;28;20527;-75
2022/05/15 03:22:22;;;;;;;60.37;3.63;;;;;;;;;;5072810;28;20540;-75
2022/05/15 03:24:49;;;;;;;60.57;4.00;;;;;;;;;;5072789;28;20848;-75
2022/05/15 03:27:17;;;;;;;59.10;3.00;;;;;;;;;;5071653;28;20542;-75
2022/05/15 03:29:44;;;;;;;60.67;3.60;;;;;;;;;;5072359;28;20465;-75
2022/05/15 03:32:11;;;;;;;61.27;4.60;;;;;;;;;;5072613;28;20983;-75
2022/05/15 03:34:38;;;;;;;60.97;3.47;;;;;;;;;;5072355;28;20985;-75
2022/05/15 03:37:07;;;;;;;59.07;3.27;;;;;;;;;;5072357;28;20478;-75
2022/05/15 03:39:34;;;;;;;59.17;3.30;;;;;;;;;;5072407;28;20491;-75
2022/05/15 03:42:02;;;;;;;59.67;3.43;;;;;;;;;;5072385;28;20480;-76
2022/05/15 03:44:29;;;;;;;59.40;3.40;;;;;;;;;;5072222;28;20545;-75
2022/05/15 03:46:56;;;;;;;59.47;3.37;;;;;;;;;;5072201;28;20932;-75
2022/05/15 03:49:24;;;;;;;59.40;3.17;;;;;;;;;;5071539;28;20532;-75
2022/05/15 03:51:51;;;;;;;59.80;3.70;;;;;;;;;;5072271;28;20482;-75
2022/05/15 03:54:19;;;;;;;59.37;3.10;;;;;;;;;;5071525;28;20454;-75
2022/05/15 03:56:52;;;;;;;59.17;2.90;;;;;;;;;;5072305;28;20536;-75
2022/05/15 03:59:21;;;;;;;60.00;3.67;;;;;;;;;;5071673;28;20890;-75
2022/05/15 04:01:48;;;;;;;59.77;3.33;;;;;;;;;;5072210;28;20471;-75
2022/05/15 04:04:16;;;;;;;59.23;3.27;;;;;;;;;;5071901;28;20883;-75
2022/05/15 04:06:43;;;;;;;62.67;3.30;;;;;;;;;;5071724;28;20454;-75
2022/05/15 04:09:10;;;;;;;59.20;3.13;;;;;;;;;;5071500;28;20494;-75
2022/05/15 04:11:39;;;;;;;59.57;3.53;;;;;;;;;;5072111;28;20502;-75
2022/05/15 04:14:07;;;;;;;59.70;3.43;;;;;;;;;;5071909;28;20943;-75
2022/05/15 04:16:34;;;;;;;59.60;3.83;;;;;;;;;;5071892;28;20537;-75
2022/05/15 04:19:02;;;;;;;59.07;2.80;;;;;;;;;;5071210;28;20529;-75
2022/05/15 04:21:36;;;;;;;59.47;3.23;;;;;;;;;;5071463;28;20469;-75
2022/05/15 04:24:03;;;;;;;59.67;3.17;;;;;;;;;;5071932;28;20450;-75
2022/05/15 04:26:30;;;;;;;59.80;3.27;;;;;;;;;;5071718;28;20451;-76
2022/05/15 04:28:59;;;;;;;59.47;3.23;;;;;;;;;;5070994;28;20947;-75
2022/05/15 04:31:26;;;;;;;61.40;3.20;;;;;;;;;;5071604;28;20586;-75
2022/05/15 04:33:53;;;;;;;59.50;3.27;;;;;;;;;;5071425;28;20884;-75
2022/05/15 04:36:20;;;;;;;59.40;3.23;;;;;;;;;;5071866;28;20529;-76
2022/05/15 04:38:48;;;;;;;59.60;3.60;;;;;;;;;;5070807;28;20578;-75
2022/05/15 04:41:15;;;;;;;59.17;3.00;;;;;;;;;;5071518;28;20508;-75
2022/05/15 04:43:42;;;;;;;59.37;3.13;;;;;;;;;;5071570;28;20449;-75
2022/05/15 04:46:10;;;;;;;59.73;3.10;;;;;;;;;;5071641;28;20538;-75
2022/05/15 04:48:38;;;;;;;60.37;4.00;;;;;;;;;;5070704;28;20534;-75
2022/05/15 04:51:05;;;;;;;60.10;3.60;;;;;;;;;;5071520;28;20469;-75
2022/05/15 04:53:33;;;;;;;59.50;3.60;;;;;;;;;;5071439;28;20530;-75
2022/05/15 04:56:00;;;;;;;59.30;3.40;;;;;;;;;;5071575;28;20441;-75
2022/05/15 04:58:27;;;;;;;58.97;3.07;;;;;;;;;;5070690;28;20526;-75
2022/05/15 05:00:55;;;;;;;59.50;3.07;;;;;;;;;;5071077;28;20466;-75
2022/05/15 05:03:23;;;;;;;59.80;3.50;;;;;;;;;;5071274;28;20486;-75
2022/05/15 05:05:50;;;;;;;59.73;4.00;;;;;;;;;;5071606;28;20533;-75
2022/05/15 05:08:17;;;;;;;59.53;3.20;;;;;;;;;;5070875;28;20873;-75
2022/05/15 05:10:45;;;;;;;59.27;3.10;;;;;;;;;;5071320;28;20818;-75
2022/05/15 05:13:13;;;;;;;59.90;3.40;;;;;;;;;;5071364;28;20450;-75
2022/05/15 05:15:40;;;;;;;59.47;3.50;;;;;;;;;;5071006;28;20458;-75
2022/05/15 05:18:08;;;;;;;59.57;3.70;;;;;;;;;;5070592;28;20516;-75
2022/05/15 05:20:36;;;;;;;59.27;3.37;;;;;;;;;;5071274;28;20520;-75
2022/05/15 05:23:03;;;;;;;59.47;3.50;;;;;;;;;;5071262;28;20454;-75
2022/05/15 05:25:31;;;;;;;60.70;3.70;;;;;;;;;;5071151;28;20866;-75
2022/05/15 05:27:59;;;;;;;61.70;3.40;;;;;;;;;;5070269;28;20821;-75
2022/05/15 05:30:26;;;;;;;59.67;4.03;;;;;;;;;;5070926;28;20999;-75
2022/05/15 05:32:54;;;;;;;59.10;3.40;;;;;;;;;;5073415;28;20877;-75
2022/05/15 05:35:22;;;;;;;59.60;3.90;;;;;;;;;;5075024;28;20451;-75
2022/05/15 05:37:51;;;;;;;59.43;3.47;;;;;;;;;;5073968;28;20854;-75
2022/05/15 05:40:18;;;;;;;60.23;3.57;;;;;;;;;;5074641;28;20470;-75
2022/05/15 05:42:45;;;;;;;60.53;3.43;;;;;;;;;;5074343;28;20886;-75
2022/05/15 05:45:13;;;;;;;59.10;3.27;;;;;;;;;;5074643;28;20450;-75
2022/05/15 05:47:40;;;;;;;60.90;3.33;;;;;;;;;;5074088;28;20439;-75
2022/05/15 05:50:09;;;;;;;59.97;4.03;;;;;;;;;;5074474;28;20498;-75
2022/05/15 05:52:36;;;;;;;58.80;2.90;;;;;;;;;;5074469;28;20894;-75
2022/05/15 05:55:05;;;;;;;60.30;4.20;;;;;;;;;;5074127;28;20538;-75
2022/05/15 05:57:32;;;;;;;59.20;3.50;;;;;;;;;;5073503;28;21021;-75
2022/05/15 05:59:59;;;;;;;60.30;3.77;;;;;;;;;;5074291;28;21062;-75
2022/05/15 06:02:26;;;;;;;60.23;3.87;;;;;;;;;;5074281;28;20447;-75
2022/05/15 06:04:53;;;;;;;65.93;4.03;;;;;;;;;;5074196;28;20443;-75
2022/05/15 06:07:22;;;;;;;61.70;4.13;;;;;;;;;;5073435;28;20451;-76
2022/05/15 06:09:50;;;;;;;60.77;4.30;;;;;;;;;;5073872;28;20489;-75
2022/05/15 06:12:20;;;;;;;59.57;3.70;;;;;;;;;;5074323;28;20534;-75
2022/05/15 06:14:48;;;;;;;60.60;3.80;;;;;;;;;;5074187;28;20498;-75
2022/05/15 06:17:15;;;;;;;59.30;3.60;;;;;;;;;;5073439;28;20535;-75
2022/05/15 06:19:42;;;;;;;61.50;3.60;;;;;;;;;;5074012;28;20484;-75
2022/05/15 06:22:09;;;;;;;59.27;3.50;;;;;;;;;;5073637;28;20457;-76
2022/05/15 06:24:36;;;;;;;59.27;3.70;;;;;;;;;;5073938;28;20448;-75
2022/05/15 06:27:04;;;;;;;59.40;3.60;;;;;;;;;;5073988;28;20545;-75
2022/05/15 06:29:32;;;;;;;59.17;3.53;;;;;;;;;;5073345;28;20443;-75
2022/05/15 06:31:59;;;;;;;58.77;3.13;;;;;;;;;;5073887;28;20538;-76
2022/05/15 06:34:27;;;;;;;59.27;3.57;;;;;;;;;;5073763;28;20444;-75
2022/05/15 06:36:54;;;;;;;59.77;4.23;;;;;;;;;;5073431;28;20626;-75
2022/05/15 06:39:21;;;;;;;59.80;3.40;;;;;;;;;;5072884;28;20483;-75
2022/05/15 06:41:50;;;;;;;62.97;3.83;;;;;;;;;;5073542;28;20850;-76
2022/05/15 06:44:17;;;;;;;60.20;3.90;;;;;;;;;;5072540;28;20455;-75
2022/05/15 06:46:46;;;;;;;59.60;3.63;;;;;;;;;;5073811;28;20868;-75
2022/05/15 06:49:13;;;;;;;59.17;3.40;;;;;;;;;;5072455;28;20446;-75
2022/05/15 06:51:41;;;;;;;59.33;3.50;;;;;;;;;;5073545;28;20559;-75
2022/05/15 06:54:08;;;;;;;59.20;3.00;;;;;;;;;;5073228;28;20448;-75
2022/05/15 06:59:20;;;;;;;59.07;3.03;;;;;;;;;;5072455;28;20487;-75
2022/05/15 07:01:49;;;;;;;59.80;3.80;;;;;;;;;;5072923;28;20475;-75
2022/05/15 07:04:16;;;;;;;60.00;3.80;;;;;;;;;;5073405;28;20456;-75
2022/05/15 07:06:43;;;;;;;61.23;3.40;;;;;;;;;;5073148;28;20483;-76
2022/05/15 07:09:10;;;;;;;59.50;3.13;;;;;;;;;;5072187;28;20987;-75
2022/05/15 07:11:39;;;;;;;60.00;3.10;;;;;;;;;;5073124;28;20847;-75
2022/05/15 07:14:06;;;;;;;59.60;3.10;;;;;;;;;;5072721;28;20540;-75
2022/05/15 07:16:33;;;;;;;59.30;3.17;;;;;;;;;;5072668;28;20490;-75
2022/05/15 07:19:02;;;;;;;59.43;3.43;;;;;;;;;;5072160;28;20975;-75
2022/05/15 07:21:29;;;;;;;59.27;3.07;;;;;;;;;;5072760;28;20471;-75
2022/05/15 07:23:56;;;;;;;58.93;3.20;;;;;;;;;;5072513;28;20450;-75
2022/05/15 07:26:24;;;;;;;59.17;3.00;;;;;;;;;;5072442;28;20489;-76
2022/05/15 07:28:51;;;;;;;59.03;3.00;;;;;;;;;;5071631;28;20450;-75
2022/05/15 07:31:19;;;;;;;60.90;3.83;;;;;;;;;;5072657;28;20560;-75
2022/05/15 07:33:47;;;;;;;59.20;2.90;;;;;;;;;;5072384;28;20461;-75
2022/05/15 07:36:16;;;;;;;59.53;3.40;;;;;;;;;;5072205;28;20449;-75
2022/05/15 07:38:43;;;;;;;59.40;3.23;;;;;;;;;;5071080;28;20501;-73
2022/05/15 07:41:10;;;;;;;59.07;3.60;;;;;;;;;;5071344;28;20934;-74
2022/05/15 07:43:37;;;;;;;59.87;3.37;;;;;;;;;;5072367;28;20454;-74
2022/05/15 07:46:05;;;;;;;59.20;3.10;;;;;;;;;;5072554;28;20823;-74
2022/05/15 07:48:32;;;;;;;58.93;3.30;;;;;;;;;;5072051;28;20533;-74
2022/05/15 07:50:59;;;;;;;59.07;3.03;;;;;;;;;;5072068;28;21093;-74
2022/05/15 07:53:28;;;;;;;59.17;3.30;;;;;;;;;;5072016;28;20549;-74
2022/05/15 07:55:55;;;;;;;59.07;3.67;;;;;;;;;;5071714;28;20541;-73
2022/05/15 07:58:25;;;;;;;59.40;3.20;;;;;;;;;;5071315;28;21066;-73
2022/05/15 08:00:53;;;;;;;59.30;3.70;;;;;;;;;;5072731;28;20562;-74
2022/05/15 08:03:21;;;;;;;59.30;3.80;;;;;;;;;;5072253;28;20454;-74
2022/05/15 08:08:34;;;;;;;59.00;3.03;;;;;;;;;;5071260;28;20526;-74
2022/05/15 08:11:02;;;;;;;59.30;4.10;;;;;;;;;;5071590;28;20550;-74
2022/05/15 08:13:30;;;;;;;58.67;2.70;;;;;;;;;;5071914;28;20458;-74
2022/05/15 08:15:58;;;;;;;58.70;2.97;;;;;;;;;;5072147;28;20455;-74
2022/05/15 08:23:58;;;;;;;58.47;2.73;;;;;;;;;;5072023;28;20543;-74
2022/05/15 08:26:26;;;;;;;58.87;2.90;;;;;;;;;;5072034;28;20542;-74
2022/05/15 08:28:53;;;;;;;59.40;3.27;;;;;;;;;;5071085;28;20440;-73
2022/05/15 08:31:21;;;;;;;59.40;3.10;;;;;;;;;;5071643;28;20550;-74
2022/05/15 08:33:49;;;;;;;58.77;3.20;;;;;;;;;;5071783;28;20455;-74
2022/05/15 08:36:16;;;;;;;59.87;3.57;;;;;;;;;;5071811;28;20455;-74
2022/05/15 08:38:44;;;;;;;59.93;3.83;;;;;;;;;;5070916;28;21007;-74
2022/05/15 08:41:17;;;;;;;59.20;3.00;;;;;;;;;;5071680;28;20494;-75
2022/05/15 08:43:46;;;;;;;59.27;3.30;;;;;;;;;;5071554;28;20457;-74
2022/05/15 08:46:24;;;;;;;58.97;3.23;;;;;;;;;;5071647;28;20551;-74
2022/05/15 08:48:51;;;;;;;59.70;3.47;;;;;;;;;;5070787;28;20533;-75
2022/05/15 08:51:19;;;;;;;58.97;3.30;;;;;;;;;;5071526;28;20466;-74
2022/05/15 08:53:50;;;;;;;58.97;2.70;;;;;;;;;;5071487;28;20536;-75
2022/05/15 08:56:18;;;;;;;59.00;2.67;;;;;;;;;;5071699;28;20461;-74
2022/05/15 08:58:48;;;;;;;59.20;2.90;;;;;;;;;;5070827;28;20510;-75
2022/05/15 09:01:16;;;;;;;63.77;2.80;;;;;;;;;;5071459;28;20471;-74
2022/05/15 09:03:44;;;;;;;61.10;3.13;;;;;;;;;;5071515;28;20822;-74
2022/05/15 09:06:14;;;;;;;58.57;2.90;;;;;;;;;;5071448;28;20447;-74
2022/05/15 09:08:57;;;;;;;58.90;2.80;;;;;;;;;;5074441;28;20543;-74
2022/05/15 09:11:32;;;;;;;59.27;3.00;;;;;;;;;;5063096;28;20484;-74
2022/05/15 09:14:07;;;;;;;58.43;2.60;;;;;;;;;;5075289;28;20447;-74
2022/05/15 09:16:34;;;;;;;59.20;2.60;;;;;;;;;;5075206;28;20531;-74
2022/05/15 09:19:02;;;;;;;58.10;2.43;;;;;;;;;;5074195;28;20482;-75
2022/05/15 09:21:29;;;;;;;63.63;2.63;;;;;;;;;;5074705;28;20967;-74
2022/05/15 09:23:58;;;;;;;58.23;2.70;;;;;;;;;;5074813;28;20451;-74
2022/05/15 09:26:30;;;;;;;61.50;3.00;;;;;;;;;;5074829;28;20493;-74
2022/05/15 09:28:58;;;;;;;59.20;3.00;;;;;;;;;;5074249;28;20450;-74
2022/05/15 09:31:27;;;;;;;59.00;3.00;;;;;;;;;;5074818;28;20570;-75
2022/05/15 09:33:55;;;;;;;58.27;2.53;;;;;;;;;;5074404;28;20483;-74
2022/05/15 09:36:24;;;;;;;59.50;2.80;;;;;;;;;;5074759;28;20487;-74
2022/05/15 09:38:52;;;;;;;58.47;2.30;;;;;;;;;;5073812;28;20569;-74
2022/05/15 09:44:07;;;;;;;59.10;2.80;;;;;;;;;;5074525;28;20559;-74
2022/05/15 09:46:35;;;;;;;58.40;2.50;;;;;;;;;;5074492;28;20978;-74
2022/05/15 09:49:05;;;;;;;58.80;2.90;;;;;;;;;;5073635;28;20448;-74
2022/05/15 09:51:36;;;;;;;59.83;2.90;;;;;;;;;;5074287;28;20474;-74
2022/05/15 09:54:04;;;;;;;58.80;2.73;;;;;;;;;;5074621;28;20443;-74
2022/05/15 09:56:32;;;;;;;59.23;3.23;;;;;;;;;;5074473;28;20873;-74
2022/05/15 09:59:01;;;;;;;61.60;3.22;;;;;;;;;;5073012;28;20560;-74
2022/05/15 10:01:35;;;;;;;58.67;2.60;;;;;;;;;;5074278;28;20232;-74
2022/05/15 10:04:03;;;;;;;60.13;2.50;;;;;;;;;;5074416;28;20455;-74
2022/05/15 10:06:32;;;;;;;58.50;2.47;;;;;;;;;;5074135;28;20495;-74
2022/05/15 10:09:20;;;;;;;58.47;2.30;;;;;;;;;;5073423;28;21022;-74
2022/05/15 10:11:48;;;;;;;58.70;2.20;;;;;;;;;;5069148;28;20851;-75
2022/05/15 10:14:24;;;;;;;58.37;2.10;;;;;;;;;;5074245;28;20453;-75
2022/05/15 10:16:53;;;;;;;58.47;2.30;;;;;;;;;;5074388;28;20441;-75
2022/05/15 10:19:26;;;;;;;58.50;2.10;;;;;;;;;;5072892;28;20480;-75
2022/05/15 10:21:57;;;;;;;57.87;2.20;;;;;;;;;;5074015;28;20499;-77
2022/05/15 10:24:26;;;;;;;57.90;2.10;;;;;;;;;;5074450;28;20443;-74
2022/05/15 10:26:57;;;;;;;57.47;2.20;;;;;;;;;;5073880;28;20757;-75
2022/05/15 10:29:29;;;;;;;58.30;2.20;;;;;;;;;;5073164;28;20883;-73
2022/05/15 10:31:59;;;;;;;58.60;2.00;;;;;;;;;;5073890;28;20472;-74
2022/05/15 10:34:29;;;;;;;57.87;2.10;;;;;;;;;;5073623;28;20541;-75
2022/05/15 10:37:04;;;;;;;57.57;2.40;;;;;;;;;;5073933;28;20893;-74
2022/05/15 10:39:34;;;;;;;58.00;2.00;;;;;;;;;;5072998;28;20559;-74
2022/05/15 10:42:07;;;;;;;57.70;2.50;;;;;;;;;;5073465;28;20479;-73
2022/05/15 10:44:49;;;;;;;57.40;2.20;;;;;;;;;;5073428;28;20451;-73
2022/05/15 10:47:19;;;;;;;57.77;2.20;;;;;;;;;;5072826;28;20486;-73
2022/05/15 10:49:53;;;;;;;57.87;2.27;;;;;;;;;;5073381;28;20872;-73
2022/05/15 10:52:26;;;;;;;57.90;2.70;;;;;;;;;;5073473;28;20478;-74
2022/05/15 10:57:50;;;;;;;57.60;2.30;;;;;;;;;;5072780;28;20415;-74
2022/05/15 11:00:20;;;;;;;58.37;2.13;;;;;;;;;;5073216;28;20578;-74
2022/05/15 11:03:02;;;;;;;56.97;1.60;;;;;;;;;;5073079;28;20522;-73
2022/05/15 11:05:32;;;;;;;57.70;2.33;;;;;;;;;;5070502;28;20538;-74
2022/05/15 11:08:03;;;;;;;57.70;2.40;;;;;;;;;;5072464;28;20535;-74
2022/05/15 11:10:34;;;;;;;57.70;2.10;;;;;;;;;;5073185;28;20545;-73
2022/05/15 11:13:05;;;;;;;57.40;2.17;;;;;;;;;;5073057;28;20527;-73
2022/05/15 11:15:36;;;;;;;57.40;1.93;;;;;;;;;;5072857;28;20846;-73
2022/05/15 11:18:09;;;;;;;58.00;2.47;;;;;;;;;;5072083;28;20446;-74
2022/05/15 11:20:40;;;;;;;57.40;2.40;;;;;;;;;;5072808;28;20519;-73
2022/05/15 11:23:11;;;;;;;57.30;2.27;;;;;;;;;;5072763;28;20551;-74
2022/05/15 11:25:43;;;;;;;58.27;2.90;;;;;;;;;;5072501;28;20543;-73
2022/05/15 11:28:13;;;;;;;57.97;2.97;;;;;;;;;;5071469;28;20471;-73
2022/05/15 11:30:41;;;;;;;57.20;1.93;;;;;;;;;;5071535;28;20491;-73
2022/05/15 11:33:09;;;;;;;57.27;2.07;;;;;;;;;;5072510;28;20542;-73
2022/05/15 11:35:39;;;;;;;57.50;2.07;;;;;;;;;;5072667;28;20522;-73
2022/05/15 11:38:19;;;;;;;57.67;2.20;;;;;;;;;;5071668;28;20465;-73
2022/05/15 11:40:47;;;;;;;57.50;2.57;;;;;;;;;;5072144;28;20501;-73
2022/05/15 11:43:33;;;;;;;57.47;2.30;;;;;;;;;;5072456;28;20482;-72
2022/05/15 11:46:02;;;;;;;58.73;2.00;;;;;;;;;;5072260;28;20935;-73
2022/05/15 11:48:32;;;;;;;57.10;2.03;;;;;;;;;;5071844;28;20815;-73
2022/05/15 11:51:01;;;;;;;57.13;2.00;;;;;;;;;;5072282;28;20514;-74
2022/05/15 11:53:30;;;;;;;57.47;2.13;;;;;;;;;;5071920;28;20486;-74
2022/05/15 11:55:59;;;;;;;57.27;2.10;;;;;;;;;;5072294;28;20521;-74
2022/05/15 11:58:33;;;;;;;58.33;2.47;;;;;;;;;;5071669;28;20451;-75
2022/05/15 12:01:15;;;;;;;56.83;1.83;;;;;;;;;;5072001;28;20506;-74
2022/05/15 12:03:50;;;;;;;57.93;2.20;;;;;;;;;;5069672;28;20459;-74
2022/05/15 12:06:22;;;;;;;57.00;2.23;;;;;;;;;;5072189;28;20446;-74
2022/05/15 12:08:51;;;;;;;57.37;2.50;;;;;;;;;;5071434;28;20443;-74
2022/05/15 12:11:31;;;;;;;57.60;2.50;;;;;;;;;;5071877;28;21000;-74
2022/05/15 12:14:00;;;;;;;57.67;2.50;;;;;;;;;;5072399;28;20483;-75
2022/05/15 12:16:31;;;;;;;57.20;2.20;;;;;;;;;;5071623;28;20448;-74
2022/05/15 12:19:03;;;;;;;57.40;2.20;;;;;;;;;;5071452;28;20870;-74
2022/05/15 12:21:36;;;;;;;57.17;2.23;;;;;;;;;;5071859;28;20587;-74
2022/05/15 12:26:52;;;;;;;57.17;2.20;;;;;;;;;;5071675;28;20426;-74
2022/05/15 12:29:25;;;;;;;56.97;2.23;;;;;;;;;;5071229;28;20475;-75
2022/05/15 12:31:53;;;;;;;56.90;1.90;;;;;;;;;;5071574;28;20463;-74
2022/05/15 12:34:22;;;;;;;57.00;2.50;;;;;;;;;;5071715;28;20447;-74
2022/05/15 12:36:54;;;;;;;57.00;2.00;;;;;;;;;;5071612;28;20455;-73
2022/05/15 12:39:24;;;;;;;57.87;2.60;;;;;;;;;;5071023;28;20454;-74
2022/05/15 12:41:51;;;;;;;57.33;2.53;;;;;;;;;;5073939;28;20545;-74
2022/05/15 12:44:29;;;;;;;57.10;2.40;;;;;;;;;;5075821;28;20453;-74
2022/05/15 12:46:57;;;;;;;57.50;2.60;;;;;;;;;;5075866;28;20798;-75
2022/05/15 12:49:31;;;;;;;59.20;2.33;;;;;;;;;;5075217;28;20447;-73
2022/05/15 12:52:10;;;;;;;57.87;2.43;;;;;;;;;;5075577;28;20442;-74
2022/05/15 12:54:38;;;;;;;57.27;2.23;;;;;;;;;;5075787;28;20447;-75
2022/05/15 12:57:07;;;;;;;57.70;2.17;;;;;;;;;;5075499;28;20448;-74
2022/05/15 12:59:36;;;;;;;58.27;2.10;;;;;;;;;;5075155;28;20459;-74
2022/05/15 13:02:14;;;;;;;58.00;2.73;;;;;;;;;;5075230;28;20534;-73
2022/05/15 13:04:45;;;;;;;57.40;2.20;;;;;;;;;;5075777;28;20928;-74
2022/05/15 13:07:14;;;;;;;57.50;2.30;;;;;;;;;;5073624;28;20875;-74
2022/05/15 13:09:41;;;;;;;57.40;2.20;;;;;;;;;;5073116;28;20855;-74
2022/05/15 13:12:12;;;;;;;58.70;2.73;;;;;;;;;;5073800;28;20913;-74
2022/05/15 13:14:42;;;;;;;57.90;2.40;;;;;;;;;;5073236;28;20948;-74
2022/05/15 13:17:11;;;;;;;57.40;2.37;;;;;;;;;;5073146;28;20454;-74
2022/05/15 13:19:42;;;;;;;57.40;2.23;;;;;;;;;;5073863;28;21048;-74
2022/05/15 13:22:14;;;;;;;57.03;2.10;;;;;;;;;;5073763;28;20450;-74
2022/05/15 13:24:43;;;;;;;57.17;2.57;;;;;;;;;;5075003;28;20489;-74
2022/05/15 13:27:10;;;;;;;57.47;2.40;;;;;;;;;;5074123;28;20447;-74
2022/05/15 13:29:39;;;;;;;57.57;2.40;;;;;;;;;;5074871;28;20452;-74
2022/05/15 13:32:07;;;;;;;57.47;2.47;;;;;;;;;;5075084;28;20500;-74
2022/05/15 13:34:35;;;;;;;57.37;2.10;;;;;;;;;;5074537;28;20454;-74
2022/05/15 13:37:03;;;;;;;57.37;2.10;;;;;;;;;;5074910;28;20483;-74
2022/05/15 13:45:06;;;;;;;57.37;2.17;;;;;;;;;;5072997;28;20426;-74
2022/05/15 13:47:33;;;;;;;57.17;2.00;;;;;;;;;;5072012;28;20501;-74
2022/05/15 13:50:00;;;;;;;57.17;2.10;;;;;;;;;;5072558;28;20487;-73
2022/05/15 13:52:30;;;;;;;57.47;2.20;;;;;;;;;;5071902;28;20458;-74
2022/05/15 13:54:58;;;;;;;57.20;2.37;;;;;;;;;;5073798;28;20745;-74
2022/05/15 13:57:27;;;;;;;57.17;2.53;;;;;;;;;;5073753;28;20459;-74
2022/05/15 14:00:02;;;;;;;57.30;2.10;;;;;;;;;;5074348;28;20879;-75
2022/05/15 14:02:30;;;;;;;57.60;2.30;;;;;;;;;;5074184;28;20474;-73
2022/05/15 14:05:12;;;;;;;57.70;2.70;;;;;;;;;;5074479;28;20714;-73
2022/05/15 14:07:40;;;;;;;58.70;3.50;;;;;;;;;;5073466;28;20466;-74
2022/05/15 14:10:17;;;;;;;57.60;2.10;;;;;;;;;;5074231;28;20486;-73
2022/05/15 14:12:48;;;;;;;57.53;2.20;;;;;;;;;;5074073;28;20453;-74
2022/05/15 14:15:33;;;;;;;57.30;2.30;;;;;;;;;;5074136;28;20628;-74
2022/05/15 14:18:01;;;;;;;58.20;2.63;;;;;;;;;;5073596;28;20447;-74
2022/05/15 14:20:30;;;;;;;57.53;2.10;;;;;;;;;;5074219;28;20500;-74
2022/05/15 14:22:58;;;;;;;57.27;2.00;;;;;;;;;;5074026;28;20534;-74
2022/05/15 14:25:25;;;;;;;57.17;2.10;;;;;;;;;;5073851;28;20879;-74
2022/05/15 14:27:53;;;;;;;57.23;2.10;;;;;;;;;;5073379;28;20443;-73
2022/05/15 14:30:21;;;;;;;57.47;2.03;;;;;;;;;;5073519;28;20570;-74
2022/05/15 14:32:52;;;;;;;57.40;2.10;;;;;;;;;;5073917;28;20543;-73
2022/05/15 14:35:22;;;;;;;57.40;2.10;;;;;;;;;;5073846;28;20453;-73
2022/05/15 14:37:49;;;;;;;57.63;2.03;;;;;;;;;;5072826;28;20448;-74
2022/05/15 14:40:16;;;;;;;57.23;2.10;;;;;;;;;;5073410;28;20464;-73
2022/05/15 14:42:43;;;;;;;57.40;2.10;;;;;;;;;;5073585;28;20479;-73
2022/05/15 14:45:17;;;;;;;61.90;2.00;;;;;;;;;;5073631;28;20527;-74
2022/05/15 14:47:45;;;;;;;57.90;2.30;;;;;;;;;;5072875;28;20447;-73
2022/05/15 14:50:13;;;;;;;58.00;2.20;;;;;;;;;;5073358;28;20629;-73
2022/05/15 14:52:40;;;;;;;58.20;2.50;;;;;;;;;;5073093;28;20539;-74
2022/05/15 14:55:08;;;;;;;57.40;2.20;;;;;;;;;;5073495;28;20811;-74
2022/05/15 14:57:35;;;;;;;58.20;2.67;;;;;;;;;;5072689;28;20530;-74
2022/05/15 15:00:05;;;;;;;57.50;1.93;;;;;;;;;;5073082;28;20471;-74
2022/05/15 15:02:34;;;;;;;57.17;1.93;;;;;;;;;;5073273;28;20450;-74
2022/05/15 15:05:02;;;;;;;57.23;2.03;;;;;;;;;;5071999;28;20551;-74
2022/05/15 15:07:29;;;;;;;57.37;2.00;;;;;;;;;;5072434;28;20447;-73
2022/05/15 15:09:56;;;;;;;57.27;1.90;;;;;;;;;;5073382;28;20551;-74